Time;durP1;ratioP1;P1;durP2;ratioP2;P2;SDS_P1;SDS_P2;PMS_P1;PMS_P2;Temp;Humidity;BMP_temperature;BMP_pressure;BME280_temperature;BME280_humidity;BME280_pressure;Samples;Min_cycle;Max_cycle;Signal;HPM_P1;HPM_P2
2023/12/13 00:00:37;;;;;;;7.50;3.00;;;;;;;12.46;67.17;99594.88;4772180;29;114334;-70
2023/12/13 00:03:05;;;;;;;7.28;2.50;;;;;;;12.44;66.98;99595.97;4777432;29;124009;-71
2023/12/13 00:05:32;;;;;;;4.88;2.33;;;;;;;12.41;67.26;99593.53;4777339;29;125138;-71
2023/12/13 00:07:59;;;;;;;7.88;2.22;;;;;;;12.39;67.11;99596.28;4751253;29;115295;-70
2023/12/13 00:10:26;;;;;;;7.72;2.05;;;;;;;12.39;67.11;99592.78;4771303;29;113824;-71
2023/12/13 00:12:53;;;;;;;9.90;2.60;;;;;;;12.37;67.32;99592.06;4755810;29;124552;-71
2023/12/13 00:15:21;;;;;;;7.65;2.10;;;;;;;12.36;67.11;99582.41;4763503;29;125925;-71
2023/12/13 00:17:49;;;;;;;4.00;2.17;;;;;;;12.34;67.11;99584.31;4754744;29;113918;-71
2023/12/13 00:20:17;;;;;;;6.07;1.90;;;;;;;12.33;67.08;99587.94;4759737;29;114423;-71
2023/12/13 00:22:44;;;;;;;6.95;2.00;;;;;;;12.32;66.98;99583.56;4772140;29;124204;-71
2023/12/13 00:25:11;;;;;;;7.90;2.08;;;;;;;12.31;66.94;99584.56;4772010;29;124141;-71
2023/12/13 00:27:39;;;;;;;7.00;2.30;;;;;;;12.29;66.95;99586.47;4771272;29;115468;-70
2023/12/13 00:30:06;;;;;;;4.63;1.80;;;;;;;12.27;67.04;99584.75;4761171;29;115498;-71
2023/12/13 00:32:34;;;;;;;5.85;2.10;;;;;;;12.26;66.85;99582.22;4769543;29;124086;-71
2023/12/13 00:35:02;;;;;;;5.57;2.20;;;;;;;12.24;66.84;99582.34;4754754;29;125348;-71
2023/12/13 00:37:29;;;;;;;6.20;2.13;;;;;;;12.22;67.00;99581.63;4759066;29;114555;-71
2023/12/13 00:39:57;;;;;;;5.00;2.05;;;;;;;12.22;67.03;99581.63;4764654;29;113845;-71
2023/12/13 00:42:24;;;;;;;6.93;2.15;;;;;;;12.20;66.92;99594.13;4762865;29;123391;-71
2023/12/13 00:44:51;;;;;;;6.38;2.00;;;;;;;12.19;66.78;99592.44;4757435;29;124084;-71
2023/12/13 00:47:18;;;;;;;8.63;1.95;;;;;;;12.18;66.97;99596.03;4742381;29;115580;-71
2023/12/13 00:49:45;;;;;;;6.18;2.20;;;;;;;12.16;66.85;99592.66;4777176;29;114153;-71
2023/12/13 00:52:13;;;;;;;4.57;1.70;;;;;;;12.13;66.82;99587.59;4773717;29;123181;-70
2023/12/13 00:54:40;;;;;;;6.25;2.00;;;;;;;12.12;66.89;99580.56;4778831;29;125029;-71
2023/12/13 00:57:07;;;;;;;6.38;1.98;;;;;;;12.10;66.67;99585.13;4778649;29;115314;-70
2023/12/13 00:59:34;;;;;;;7.05;2.13;;;;;;;12.09;66.70;99578.13;4757094;29;113380;-70
2023/12/13 01:02:03;;;;;;;7.15;2.00;;;;;;;12.06;66.53;99588.97;4770281;29;121669;-71
2023/12/13 01:04:30;;;;;;;5.18;2.08;;;;;;;12.02;66.69;99590.16;4764752;29;123909;-71
2023/12/13 01:06:58;;;;;;;7.10;2.10;;;;;;;11.98;66.72;99583.34;4765555;29;113387;-71
2023/12/13 01:09:26;;;;;;;3.50;1.73;;;;;;;11.96;66.68;99586.13;4759898;29;115613;-71
2023/12/13 01:11:53;;;;;;;6.15;1.98;;;;;;;11.93;66.71;99580.19;4768750;29;125609;-71
2023/12/13 01:14:20;;;;;;;3.97;1.98;;;;;;;11.92;66.40;99586.44;4775505;29;123856;-71
2023/12/13 01:16:48;;;;;;;9.07;2.00;;;;;;;11.90;66.73;99583.06;4777831;29;115389;-71
2023/12/13 01:19:15;;;;;;;4.68;1.88;;;;;;;11.88;66.84;99583.13;4776204;29;113898;-71
2023/12/13 01:21:42;;;;;;;6.65;2.10;;;;;;;11.88;66.91;99584.00;4757463;29;123929;-71
2023/12/13 01:24:09;;;;;;;6.93;1.60;;;;;;;11.87;66.96;99587.59;4760643;29;124674;-71
2023/12/13 01:26:36;;;;;;;7.35;1.98;;;;;;;11.88;66.91;99591.94;4758922;29;114130;-71
2023/12/13 01:29:04;;;;;;;6.78;1.85;;;;;;;11.88;66.99;99588.44;4764873;29;113115;-71
2023/12/13 01:31:31;;;;;;;6.53;1.98;;;;;;;11.88;66.91;99589.31;4779142;29;124259;-71
2023/12/13 01:33:59;;;;;;;5.32;1.63;;;;;;;11.87;67.12;99584.94;4760391;29;125607;-71
2023/12/13 01:36:26;;;;;;;6.38;1.92;;;;;;;11.89;66.78;99587.47;4785389;29;116050;-71
2023/12/13 01:38:53;;;;;;;2.70;1.70;;;;;;;11.91;67.12;99598.03;4775433;29;113529;-71
2023/12/13 01:41:20;;;;;;;8.57;1.98;;;;;;;11.92;67.04;99589.09;4749196;29;126517;-71
2023/12/13 01:43:47;;;;;;;7.30;1.90;;;;;;;11.92;66.95;99594.41;4773441;29;124106;-71
2023/12/13 01:46:16;;;;;;;5.43;1.60;;;;;;;11.91;67.24;99592.72;4776651;29;113599;-71
2023/12/13 01:48:44;;;;;;;8.15;1.83;;;;;;;11.90;67.18;99591.84;4760863;29;115152;-71
2023/12/13 01:51:12;;;;;;;3.25;1.63;;;;;;;11.91;67.05;99598.88;4763261;29;125273;-71
2023/12/13 01:53:40;;;;;;;5.97;1.40;;;;;;;11.92;67.17;99592.59;4761759;29;123523;-71
2023/12/13 01:56:09;;;;;;;6.97;1.65;;;;;;;11.94;67.15;99597.78;4772882;29;114185;-71
2023/12/13 01:58:37;;;;;;;4.03;1.40;;;;;;;11.94;67.09;99592.47;4781690;29;113425;-71
2023/12/13 02:01:06;;;;;;;6.00;1.63;;;;;;;11.94;67.17;99597.78;4755534;29;125035;-71
2023/12/13 02:03:36;;;;;;;3.90;1.50;;;;;;;11.96;67.22;99598.53;4749948;29;123863;-71
2023/12/13 02:06:04;;;;;;;4.40;1.50;;;;;;;11.96;67.20;99601.19;4777485;29;115559;-71
2023/12/13 02:08:33;;;;;;;5.85;1.60;;;;;;;11.98;67.19;99599.25;4770502;29;115107;-71
2023/12/13 02:11:00;;;;;;;6.53;1.65;;;;;;;11.99;67.19;99600.97;4755554;29;123027;-71
2023/12/13 02:13:27;;;;;;;6.75;1.70;;;;;;;12.00;67.13;99592.06;4778572;29;124783;-71
2023/12/13 02:15:54;;;;;;;3.75;1.77;;;;;;;11.99;67.06;99587.72;4769543;29;115005;-71
2023/12/13 02:18:22;;;;;;;4.15;1.65;;;;;;;12.01;67.23;99588.44;4763988;29;113651;-71
2023/12/13 02:20:52;;;;;;;5.18;1.70;;;;;;;12.03;67.13;99586.53;4757565;29;123719;-71
2023/12/13 02:23:19;;;;;;;5.72;1.67;;;;;;;12.03;67.23;99592.69;4753516;29;124000;-71
2023/12/13 02:25:58;;;;;;;5.22;1.85;;;;;;;12.03;67.07;99591.84;4738621;29;114271;-71
2023/12/13 02:28:26;;;;;;;6.05;1.95;;;;;;;12.03;67.05;99581.22;4753792;29;113893;-71
2023/12/13 02:30:55;;;;;;;6.38;1.95;;;;;;;12.03;67.19;99586.53;4768545;29;124304;-71
2023/12/13 02:33:26;;;;;;;5.50;2.03;;;;;;;12.04;67.19;99582.94;4775925;29;124585;-71
2023/12/13 02:35:57;;;;;;;5.05;1.60;;;;;;;12.05;67.15;99584.59;4768938;29;114404;-71
2023/12/13 02:38:24;;;;;;;6.95;2.17;;;;;;;12.07;67.13;99582.69;4737883;29;114610;-71
2023/12/13 02:40:53;;;;;;;7.05;2.00;;;;;;;12.08;67.11;99573.78;4761667;29;127058;-71
2023/12/13 02:43:20;;;;;;;10.73;2.20;;;;;;;12.07;67.19;99572.06;4769029;29;124339;-71
2023/12/13 02:45:48;;;;;;;6.65;2.10;;;;;;;12.07;67.11;99562.34;4749105;29;115834;-71
2023/12/13 02:48:15;;;;;;;7.82;2.20;;;;;;;12.07;67.20;99561.47;4738813;29;113384;-71
2023/12/13 02:50:43;;;;;;;8.05;2.28;;;;;;;12.06;67.16;99565.94;4772841;29;124147;-71
2023/12/13 02:53:10;;;;;;;7.40;2.30;;;;;;;12.05;67.27;99563.38;4753016;29;124756;-71
2023/12/13 02:55:37;;;;;;;6.82;2.22;;;;;;;12.05;67.18;99568.69;4771990;29;115187;-71
2023/12/13 02:58:04;;;;;;;5.35;2.03;;;;;;;12.04;67.15;99567.00;4756860;29;115067;-71
2023/12/13 03:00:32;;;;;;;9.32;2.28;;;;;;;12.03;67.23;99560.00;4759682;29;123647;-71
2023/12/13 03:02:59;;;;;;;8.73;2.70;;;;;;;12.03;67.20;99565.28;4775065;29;123233;-71
2023/12/13 03:05:26;;;;;;;7.95;2.58;;;;;;;12.02;67.30;99558.31;4758475;29;114330;-71
2023/12/13 03:07:53;;;;;;;8.60;2.97;;;;;;;12.02;67.43;99561.81;4752847;29;113808;-71
2023/12/13 03:10:20;;;;;;;5.60;2.50;;;;;;;12.01;67.17;99561.91;4758807;29;124980;-71
2023/12/13 03:12:48;;;;;;;7.10;2.80;;;;;;;12.02;67.45;99563.63;4776972;29;125309;-71
2023/12/13 03:15:15;;;;;;;8.30;2.50;;;;;;;12.02;67.33;99558.31;4771243;29;114173;-71
2023/12/13 03:17:42;;;;;;;7.80;2.50;;;;;;;12.01;67.30;99556.59;4744517;29;114811;-71
2023/12/13 03:20:10;;;;;;;8.15;2.40;;;;;;;12.03;67.31;99560.00;4774340;29;123827;-71
2023/12/13 03:22:37;;;;;;;8.82;2.55;;;;;;;12.04;67.34;99559.03;4752056;29;123935;-71
2023/12/13 03:25:05;;;;;;;7.78;2.65;;;;;;;12.02;67.33;99558.31;4743588;29;116009;-73
2023/12/13 03:27:32;;;;;;;7.18;2.65;;;;;;;12.02;67.30;99563.63;4761037;29;113860;-71
2023/12/13 03:30:00;;;;;;;9.05;2.90;;;;;;;12.01;67.26;99556.59;4779327;29;124048;-71
2023/12/13 03:32:27;;;;;;;7.72;2.38;;;;;;;12.01;67.07;99546.00;4772755;29;123863;-71
2023/12/13 03:34:55;;;;;;;11.35;2.70;;;;;;;12.01;67.30;99551.28;4780133;29;113977;-71
2023/12/13 03:37:22;;;;;;;8.85;3.00;;;;;;;12.01;67.34;99553.94;4759163;29;114642;-71
2023/12/13 03:39:50;;;;;;;5.40;2.47;;;;;;;12.02;67.39;99553.00;4780996;29;123491;-71
2023/12/13 03:42:17;;;;;;;15.52;2.80;;;;;;;12.02;67.51;99553.00;4772066;29;124155;-71
2023/12/13 03:44:44;;;;;;;12.90;2.90;;;;;;;12.02;67.36;99553.00;4756184;29;114242;-71
2023/12/13 03:47:11;;;;;;;9.63;2.63;;;;;;;12.01;67.45;99551.28;4782663;29;115892;-71
2023/12/13 03:49:38;;;;;;;6.80;2.63;;;;;;;12.01;67.44;99540.69;4759531;29;123816;-71
2023/12/13 03:52:07;;;;;;;11.57;3.05;;;;;;;12.03;67.52;99544.06;4739987;29;122637;-71
2023/12/13 03:54:34;;;;;;;13.25;3.05;;;;;;;12.05;67.42;99542.16;4773502;29;114568;-71
2023/12/13 03:57:02;;;;;;;9.85;2.83;;;;;;;12.06;67.65;99543.84;4763767;29;114569;-71
2023/12/13 03:59:29;;;;;;;8.77;2.65;;;;;;;12.07;67.42;99540.22;4775241;29;124002;-71
2023/12/13 04:01:56;;;;;;;7.55;2.95;;;;;;;12.07;67.43;99540.22;4752177;29;124524;-71
2023/12/13 04:04:23;;;;;;;10.38;3.00;;;;;;;12.07;67.43;99534.91;4776558;29;114561;-71
2023/12/13 04:06:51;;;;;;;7.30;3.10;;;;;;;12.07;67.46;99534.91;4762260;29;115442;-71
2023/12/13 04:09:18;;;;;;;10.70;2.72;;;;;;;12.08;67.68;99533.97;4762474;29;124000;-71
2023/12/13 04:11:45;;;;;;;10.20;2.78;;;;;;;12.09;67.48;99527.69;4759881;29;123810;-71
2023/12/13 04:14:12;;;;;;;9.20;2.40;;;;;;;12.08;67.66;99537.47;4742098;29;114530;-71
2023/12/13 04:16:39;;;;;;;14.43;2.83;;;;;;;12.10;67.40;99529.41;4776634;29;114823;-71
2023/12/13 04:19:10;;;;;;;10.82;2.72;;;;;;;12.10;67.57;99529.41;4757258;29;125978;-71
2023/12/13 04:21:39;;;;;;;11.63;2.60;;;;;;;12.10;67.52;99534.72;4775285;29;123668;-71
2023/12/13 04:24:06;;;;;;;10.68;2.47;;;;;;;12.10;67.57;99534.72;4742988;29;114341;-71
2023/12/13 04:26:33;;;;;;;10.57;2.40;;;;;;;12.12;67.80;99531.94;4758997;29;114558;-71
2023/12/13 04:29:00;;;;;;;11.50;2.47;;;;;;;12.12;67.51;99532.78;4770365;29;124778;-71
2023/12/13 04:31:28;;;;;;;14.27;2.83;;;;;;;12.12;67.51;99530.13;4740651;29;123434;-71
2023/12/13 04:33:56;;;;;;;12.05;3.00;;;;;;;12.13;67.63;99534.50;4772141;29;115322;-71
2023/12/13 04:36:23;;;;;;;9.63;2.65;;;;;;;12.14;67.51;99536.19;4778565;29;115380;-71
2023/12/13 04:38:50;;;;;;;9.50;2.38;;;;;;;12.14;67.50;99525.56;4777629;29;124007;-71
2023/12/13 04:41:17;;;;;;;8.82;2.80;;;;;;;12.14;67.54;99525.56;4777551;29;123735;-71
2023/12/13 04:43:44;;;;;;;12.93;2.47;;;;;;;12.14;67.54;99528.22;4756442;29;114096;-71
2023/12/13 04:46:12;;;;;;;11.50;2.65;;;;;;;12.15;67.54;99532.59;4773512;29;113768;-71
2023/12/13 04:48:39;;;;;;;7.70;2.15;;;;;;;12.16;67.60;99528.94;4767072;29;124100;-71
2023/12/13 04:51:07;;;;;;;11.20;2.80;;;;;;;12.17;67.62;99530.66;4764358;29;124668;-71
2023/12/13 04:53:35;;;;;;;12.88;2.03;;;;;;;12.16;67.55;99536.91;4757108;29;113498;-71
2023/12/13 04:56:02;;;;;;;9.73;2.22;;;;;;;12.18;67.53;99528.84;4764906;29;112050;-71
2023/12/13 04:58:29;;;;;;;13.93;2.60;;;;;;;12.18;67.54;99527.03;4764637;29;125385;-71
2023/12/13 05:00:57;;;;;;;12.60;2.35;;;;;;;12.20;67.68;99534.88;4741663;29;123043;-71
2023/12/13 05:03:26;;;;;;;12.68;2.95;;;;;;;12.21;67.71;99537.44;4765389;29;115216;-71
2023/12/13 05:05:53;;;;;;;12.45;2.47;;;;;;;12.21;67.59;99524.16;4766112;29;114481;-71
2023/12/13 05:08:20;;;;;;;11.77;2.55;;;;;;;12.21;67.67;99521.50;4777529;29;124629;-71
2023/12/13 05:10:48;;;;;;;13.25;2.85;;;;;;;12.21;67.64;99513.53;4754165;29;124069;-71
2023/12/13 05:13:15;;;;;;;14.20;2.45;;;;;;;12.21;67.69;99510.88;4779595;29;114405;-71
2023/12/13 05:15:42;;;;;;;12.23;2.40;;;;;;;12.22;67.68;99515.25;4758869;29;114983;-71
2023/12/13 05:18:09;;;;;;;11.38;2.70;;;;;;;12.23;67.60;99508.97;4780428;29;124010;-71
2023/12/13 05:20:37;;;;;;;15.30;2.80;;;;;;;12.24;67.70;99516.00;4779399;29;124192;-71
2023/12/13 05:23:04;;;;;;;11.98;2.70;;;;;;;12.27;67.87;99510.44;4775889;29;115028;-71
2023/12/13 05:25:32;;;;;;;10.50;2.42;;;;;;;12.29;67.76;99512.13;4779776;29;115464;-71
2023/12/13 05:27:59;;;;;;;13.48;2.47;;;;;;;12.29;67.51;99506.84;4769365;29;124974;-71
2023/12/13 05:30:26;;;;;;;11.93;2.30;;;;;;;12.30;67.71;99509.38;4759675;29;124053;-71
2023/12/13 05:32:53;;;;;;;17.15;2.80;;;;;;;12.31;67.64;99510.22;4770915;29;114281;-71
2023/12/13 05:35:20;;;;;;;13.45;2.90;;;;;;;12.31;67.76;99507.56;4764614;29;113857;-71
2023/12/13 05:37:48;;;;;;;16.05;2.70;;;;;;;12.32;67.61;99506.59;4760089;29;124775;-71
2023/12/13 05:40:18;;;;;;;8.20;2.25;;;;;;;12.32;67.66;99517.19;4758316;29;123663;-71
2023/12/13 05:42:46;;;;;;;12.93;2.45;;;;;;;12.33;67.69;99513.59;4759457;29;114271;-71
2023/12/13 05:45:13;;;;;;;13.40;2.45;;;;;;;12.33;67.78;99510.94;4775491;29;113458;-71
2023/12/13 05:47:40;;;;;;;9.98;2.58;;;;;;;12.35;67.72;99517.00;4771438;29;123966;-71
2023/12/13 05:50:08;;;;;;;13.55;2.17;;;;;;;12.37;67.60;99520.38;4772535;29;124941;-71
2023/12/13 05:52:36;;;;;;;9.43;2.38;;;;;;;12.36;67.64;99513.38;4752410;29;115546;-71
2023/12/13 05:55:07;;;;;;;10.27;3.10;;;;;;;12.37;67.67;99515.06;4761957;29;113991;-71
2023/12/13 05:57:34;;;;;;;13.38;2.72;;;;;;;12.37;67.38;99512.41;4765826;29;124512;-71
2023/12/13 06:00:06;;;;;;;12.25;2.75;;;;;;;12.37;67.67;99517.72;4773547;29;124753;-71
2023/12/13 06:02:36;;;;;;;9.18;2.20;;;;;;;12.36;67.72;99516.03;4773089;29;115144;-71
2023/12/13 06:05:04;;;;;;;10.57;2.40;;;;;;;12.38;67.69;99527.41;4772568;29;114508;-71
2023/12/13 06:07:32;;;;;;;16.48;2.85;;;;;;;12.38;67.61;99522.91;4772075;29;123834;-71
2023/12/13 06:09:59;;;;;;;10.38;2.90;;;;;;;12.38;67.50;99527.41;4771580;29;125150;-71
2023/12/13 06:12:26;;;;;;;12.57;2.55;;;;;;;12.39;67.67;99523.75;4775152;29;115217;-71
2023/12/13 06:14:58;;;;;;;11.82;2.47;;;;;;;12.40;67.62;99526.31;4761213;29;115290;-71
2023/12/13 06:17:25;;;;;;;15.10;3.35;;;;;;;12.42;67.70;99523.53;4760464;29;125636;-71
2023/12/13 06:19:52;;;;;;;14.80;2.67;;;;;;;12.43;67.66;99535.84;4781226;29;124424;-72
2023/12/13 06:22:20;;;;;;;12.13;2.47;;;;;;;12.43;67.70;99527.88;4757393;29;114943;-71
2023/12/13 06:24:47;;;;;;;11.40;2.55;;;;;;;12.45;67.63;99528.59;4767379;29;113878;-71
2023/12/13 06:27:14;;;;;;;14.15;2.50;;;;;;;12.46;67.58;99530.31;4771418;29;124149;-70
2023/12/13 06:29:41;;;;;;;11.20;2.47;;;;;;;12.48;67.91;99539.00;4777331;29;122988;-71
2023/12/13 06:32:09;;;;;;;15.10;3.15;;;;;;;12.48;67.53;99539.00;4769563;29;114147;-71
2023/12/13 06:34:36;;;;;;;12.68;2.63;;;;;;;12.48;67.67;99539.00;4750591;29;116034;-71
2023/12/13 06:37:03;;;;;;;11.35;2.80;;;;;;;12.49;67.60;99538.06;4771746;29;123001;-71
2023/12/13 06:39:31;;;;;;;15.38;2.72;;;;;;;12.48;67.69;99544.31;4768046;29;124525;-71
2023/12/13 06:41:58;;;;;;;13.18;3.40;;;;;;;12.47;67.63;99537.34;4770590;29;114055;-71
2023/12/13 06:44:25;;;;;;;9.98;2.80;;;;;;;12.46;67.58;99541.78;4769438;29;114122;-71
2023/12/13 06:46:52;;;;;;;12.50;2.75;;;;;;;12.44;67.44;99548.19;4779512;29;124188;-71
2023/12/13 06:49:22;;;;;;;18.65;2.60;;;;;;;12.42;67.67;99540.31;4779459;29;124634;-71
2023/12/13 06:51:52;;;;;;;15.02;2.70;;;;;;;12.43;67.72;99542.03;4779945;29;115378;-71
2023/12/13 06:54:20;;;;;;;16.02;2.70;;;;;;;12.42;67.72;99534.16;4745893;29;114654;-71
2023/12/13 06:56:48;;;;;;;14.38;2.83;;;;;;;12.43;67.59;99535.84;4773642;29;124413;-71
2023/12/13 06:59:15;;;;;;;12.30;2.50;;;;;;;12.44;67.71;99537.56;4771827;29;124404;-71
2023/12/13 07:01:43;;;;;;;13.57;2.72;;;;;;;12.45;67.56;99539.22;4769639;29;116267;-71
2023/12/13 07:04:10;;;;;;;12.98;2.63;;;;;;;12.46;67.75;99535.63;4775315;29;115928;-71
2023/12/13 07:06:37;;;;;;;11.55;2.67;;;;;;;12.46;67.56;99540.94;4763260;29;123225;-71
2023/12/13 07:09:05;;;;;;;15.25;2.60;;;;;;;12.45;67.50;99544.53;4760310;29;125108;-71
2023/12/13 07:11:32;;;;;;;15.00;2.92;;;;;;;12.44;67.69;99548.19;4774585;29;115145;-71
2023/12/13 07:14:01;;;;;;;17.13;2.92;;;;;;;12.44;67.64;99537.56;4748465;29;114924;-71
2023/12/13 07:16:28;;;;;;;16.88;3.10;;;;;;;12.44;67.54;99537.56;4748056;29;125027;-71
2023/12/13 07:18:55;;;;;;;13.95;2.97;;;;;;;12.45;67.53;99547.19;4779538;29;124445;-71
2023/12/13 07:21:22;;;;;;;12.02;3.00;;;;;;;12.46;67.68;99546.25;4751513;29;115796;-72
2023/12/13 07:23:50;;;;;;;9.48;2.90;;;;;;;12.46;67.62;99554.22;4778681;29;113811;-71
2023/12/13 07:26:17;;;;;;;10.90;2.50;;;;;;;12.47;67.52;99550.63;4753642;29;124853;-71
2023/12/13 07:28:44;;;;;;;8.77;2.25;;;;;;;12.46;67.58;99551.56;4765231;29;123644;-72
2023/12/13 07:31:11;;;;;;;11.93;2.90;;;;;;;12.45;67.66;99550.72;4756468;29;115135;-71
2023/12/13 07:33:40;;;;;;;15.32;2.58;;;;;;;12.45;67.48;99552.50;4753471;29;113100;-71
2023/12/13 07:36:11;;;;;;;11.80;2.67;;;;;;;12.44;67.57;99554.31;4755611;29;124412;-71
2023/12/13 07:38:40;;;;;;;13.98;2.88;;;;;;;12.43;67.65;99557.97;4762374;29;125091;-71
2023/12/13 07:41:08;;;;;;;7.10;2.45;;;;;;;12.44;67.64;99553.50;4761560;29;115358;-71
2023/12/13 07:43:35;;;;;;;6.93;2.05;;;;;;;12.45;67.71;99557.81;4762656;29;113946;-71
2023/12/13 07:46:03;;;;;;;7.57;1.63;;;;;;;12.45;67.54;99565.78;4755130;29;123808;-72
2023/12/13 07:48:30;;;;;;;5.70;1.60;;;;;;;12.44;67.67;99556.13;4758416;29;125333;-70
2023/12/13 07:50:58;;;;;;;8.88;1.85;;;;;;;12.45;67.65;99555.16;4762614;29;114699;-73
2023/12/13 07:53:27;;;;;;;14.52;2.83;;;;;;;12.46;67.59;99562.19;4758803;29;115851;-70
2023/12/13 07:55:54;;;;;;;12.93;2.60;;;;;;;12.47;67.58;99561.25;4744633;29;125324;-72
2023/12/13 07:58:21;;;;;;;11.07;2.55;;;;;;;12.48;67.69;99562.06;4762610;29;123200;-71
2023/12/13 08:00:48;;;;;;;6.57;2.72;;;;;;;12.49;67.59;99561.97;4760929;29;113744;-71
2023/12/13 08:03:15;;;;;;;8.55;2.40;;;;;;;12.49;67.46;99567.28;4778714;29;116159;-71
2023/12/13 08:05:43;;;;;;;9.43;2.80;;;;;;;12.48;67.45;99565.56;4771205;29;125092;-71
2023/12/13 08:08:10;;;;;;;11.73;3.03;;;;;;;12.48;67.35;99562.91;4752862;29;125096;-71
2023/12/13 08:10:37;;;;;;;8.55;2.60;;;;;;;12.48;67.61;99560.25;4774074;29;114402;-71
2023/12/13 08:13:04;;;;;;;10.27;2.63;;;;;;;12.48;67.42;99565.56;4769415;29;114114;-71
2023/12/13 08:15:32;;;;;;;7.93;2.63;;;;;;;12.47;67.54;99574.50;4780779;29;123334;-71
2023/12/13 08:17:59;;;;;;;9.88;3.20;;;;;;;12.47;67.59;99571.84;4767304;29;123976;-71
2023/12/13 08:20:29;;;;;;;8.90;3.03;;;;;;;12.48;67.41;99576.19;4753954;29;114182;-71
2023/12/13 08:22:57;;;;;;;9.75;3.05;;;;;;;12.48;67.54;99570.03;4744513;29;115683;-71
2023/12/13 08:25:24;;;;;;;11.73;3.20;;;;;;;12.47;67.59;99574.50;4762500;29;123905;-71
2023/12/13 08:27:51;;;;;;;11.18;3.22;;;;;;;12.46;67.40;99572.81;4764663;29;124839;-71
2023/12/13 08:30:18;;;;;;;8.60;3.08;;;;;;;12.47;67.42;99579.81;4774106;29;114040;-71
2023/12/13 08:32:46;;;;;;;9.02;2.78;;;;;;;12.48;67.56;99576.19;4769933;29;113200;-71
2023/12/13 08:35:13;;;;;;;10.15;3.33;;;;;;;12.48;67.49;99580.66;4756022;29;124805;-71
2023/12/13 08:37:40;;;;;;;9.13;3.33;;;;;;;12.48;67.30;99584.16;4769523;29;125589;-71
2023/12/13 08:40:08;;;;;;;12.15;3.42;;;;;;;12.49;67.54;99585.88;4739464;29;115934;-70
2023/12/13 08:42:37;;;;;;;7.05;2.97;;;;;;;12.49;67.48;99593.84;4760467;29;113878;-71
2023/12/13 08:45:11;;;;;;;9.45;3.38;;;;;;;12.49;67.53;99585.00;4768689;29;124223;-71
2023/12/13 08:47:39;;;;;;;9.65;3.47;;;;;;;12.50;67.59;99590.19;4756202;29;124135;-71
2023/12/13 08:50:07;;;;;;;9.27;3.55;;;;;;;12.50;67.49;99595.50;4755725;29;113816;-70
2023/12/13 08:52:34;;;;;;;9.85;3.47;;;;;;;12.51;67.48;99594.56;4756407;29;114048;-71
2023/12/13 08:55:02;;;;;;;12.10;3.33;;;;;;;12.53;67.52;99594.47;4752726;29;124327;-71
2023/12/13 08:57:29;;;;;;;11.45;3.17;;;;;;;12.54;67.67;99591.66;4761309;29;123068;-71
2023/12/13 08:59:56;;;;;;;7.15;3.15;;;;;;;12.57;67.51;99596.78;4770318;29;114465;-71
2023/12/13 09:02:36;;;;;;;8.75;2.92;;;;;;;12.57;67.45;99591.47;4768911;29;113988;-71
2023/12/13 09:05:04;;;;;;;7.45;3.22;;;;;;;12.60;67.47;99601.88;4764550;29;124749;-71
2023/12/13 09:07:34;;;;;;;8.32;2.95;;;;;;;12.61;67.62;99598.22;4772823;29;125012;-71
2023/12/13 09:10:03;;;;;;;7.80;2.90;;;;;;;12.63;67.56;99598.97;4760331;29;114656;-71
2023/12/13 09:12:30;;;;;;;7.88;3.30;;;;;;;12.65;67.55;99605.00;4753068;29;115133;-71
2023/12/13 09:14:57;;;;;;;7.47;3.17;;;;;;;12.66;67.52;99600.56;4781187;29;124007;-71
2023/12/13 09:17:26;;;;;;;7.38;3.10;;;;;;;12.70;67.57;99609.16;4758621;29;125442;-71
2023/12/13 09:19:53;;;;;;;6.53;2.80;;;;;;;12.71;67.65;99613.50;4757700;29;114912;-71
2023/12/13 09:22:20;;;;;;;9.18;3.17;;;;;;;12.73;67.64;99616.88;4750924;29;114754;-71
2023/12/13 09:24:47;;;;;;;6.88;3.17;;;;;;;12.75;67.70;99609.66;4763537;29;123109;-71
2023/12/13 09:27:14;;;;;;;6.30;3.33;;;;;;;12.75;67.63;99614.97;4779917;29;124381;-71
2023/12/13 09:29:42;;;;;;;7.50;3.25;;;;;;;12.77;67.87;99610.38;4765114;29;114870;-71
2023/12/13 09:32:09;;;;;;;6.88;3.17;;;;;;;12.78;67.54;99610.28;4764912;29;116328;-71
2023/12/13 09:34:36;;;;;;;10.20;3.28;;;;;;;12.79;67.64;99611.09;4779955;29;124212;-71
2023/12/13 09:37:04;;;;;;;7.55;3.25;;;;;;;12.79;67.63;99611.09;4765827;29;124986;-71
2023/12/13 09:39:31;;;;;;;11.15;2.95;;;;;;;12.78;67.64;99620.06;4763433;29;114854;-71
2023/12/13 09:42:02;;;;;;;7.90;3.00;;;;;;;12.78;67.54;99625.38;4763188;29;113888;-71
2023/12/13 09:44:31;;;;;;;8.23;2.92;;;;;;;12.77;67.66;99623.66;4763608;29;124407;-71
2023/12/13 09:47:00;;;;;;;8.90;3.10;;;;;;;12.77;67.61;99624.53;4773722;29;124027;-71
2023/12/13 09:49:28;;;;;;;6.07;2.95;;;;;;;12.78;67.67;99620.91;4762745;29;113534;-71
2023/12/13 09:52:07;;;;;;;7.47;2.90;;;;;;;12.80;67.66;99628.75;4753442;29;113969;-71
2023/12/13 09:54:38;;;;;;;8.35;3.17;;;;;;;12.83;67.69;99633.88;4775001;29;125419;-71
2023/12/13 09:57:06;;;;;;;5.85;2.88;;;;;;;12.84;67.62;99631.06;4773920;29;123837;-71
2023/12/13 09:59:35;;;;;;;10.10;3.70;;;;;;;12.88;67.85;99626.38;4768464;29;114148;-71
2023/12/13 10:02:12;;;;;;;7.28;3.45;;;;;;;12.93;67.74;99636.69;4763523;29;114364;-72
2023/12/13 10:04:40;;;;;;;6.72;3.28;;;;;;;12.98;68.06;99638.03;4761387;29;123863;-72
2023/12/13 10:07:08;;;;;;;9.32;3.42;;;;;;;13.03;68.02;99630.56;4763762;29;124595;-71
2023/12/13 10:09:35;;;;;;;10.70;3.47;;;;;;;13.10;68.11;99635.41;4749905;29;116035;-71
2023/12/13 10:12:04;;;;;;;11.48;3.70;;;;;;;13.18;68.21;99643.66;4770434;29;114889;-72
2023/12/13 10:14:34;;;;;;;8.95;3.92;;;;;;;13.25;68.06;99639.56;4743644;29;125889;-71
2023/12/13 10:17:01;;;;;;;8.27;3.58;;;;;;;13.29;68.17;99643.69;4756157;29;126051;-71
2023/12/13 10:19:44;;;;;;;11.68;3.55;;;;;;;13.35;68.09;99645.91;4764803;29;115236;-72
2023/12/13 10:22:11;;;;;;;9.38;3.97;;;;;;;13.41;68.21;99645.47;4774485;29;115675;-71
2023/12/13 10:24:39;;;;;;;10.40;3.90;;;;;;;13.47;68.15;99653.91;4767704;29;124961;-71
2023/12/13 10:27:06;;;;;;;9.38;3.45;;;;;;;13.54;68.20;99649.84;4775708;29;123952;-70
2023/12/13 10:29:34;;;;;;;8.68;3.78;;;;;;;13.61;68.26;99645.75;4776295;29;114420;-71
2023/12/13 10:32:01;;;;;;;8.23;3.95;;;;;;;13.68;68.12;99646.97;4759980;29;113661;-71
2023/12/13 10:34:29;;;;;;;8.77;4.30;;;;;;;13.75;68.08;99648.19;4768337;29;124071;-71
2023/12/13 10:36:58;;;;;;;9.88;4.57;;;;;;;13.80;68.06;99646.00;4778230;29;124379;-71
2023/12/13 10:39:26;;;;;;;10.88;4.53;;;;;;;13.85;68.16;99647.47;4775202;29;114031;-71
2023/12/13 10:41:55;;;;;;;7.97;4.25;;;;;;;13.89;67.88;99638.28;4748094;29;114937;-71
2023/12/13 10:44:23;;;;;;;10.63;4.93;;;;;;;13.91;67.76;99649.66;4763077;29;125646;-71
2023/12/13 10:46:56;;;;;;;8.63;4.25;;;;;;;13.96;67.93;99650.16;4762939;29;122569;-71
2023/12/13 10:49:24;;;;;;;12.45;4.70;;;;;;;14.01;67.72;99642.63;4764249;29;114092;-71
2023/12/13 10:51:52;;;;;;;11.23;4.80;;;;;;;14.04;67.63;99647.72;4763228;29;113870;-71
2023/12/13 10:54:20;;;;;;;10.50;4.03;;;;;;;14.06;67.43;99650.28;4762820;29;124005;-70
2023/12/13 10:56:48;;;;;;;10.43;4.20;;;;;;;14.04;67.33;99646.88;4761691;29;124176;-72
2023/12/13 10:59:16;;;;;;;9.00;4.70;;;;;;;14.00;67.22;99647.13;4780827;29;113755;-71
2023/12/13 11:01:45;;;;;;;9.60;4.07;;;;;;;13.99;67.41;99649.91;4759409;29;114198;-71
2023/12/13 11:04:13;;;;;;;9.82;3.78;;;;;;;13.97;67.14;99646.50;4760295;29;123918;-71
2023/12/13 11:06:46;;;;;;;11.00;4.07;;;;;;;13.96;67.18;99650.16;4753791;29;123901;-71
2023/12/13 11:09:21;;;;;;;9.10;4.20;;;;;;;13.96;67.23;99650.16;4766919;29;114722;-71
2023/12/13 11:11:48;;;;;;;10.13;3.70;;;;;;;13.94;67.06;99657.41;4770108;29;115470;-71
2023/12/13 11:14:17;;;;;;;6.53;3.70;;;;;;;13.93;66.86;99655.72;4765665;29;123675;-70
2023/12/13 11:16:49;;;;;;;8.32;3.63;;;;;;;13.91;66.92;99662.97;4781522;29;124732;-71
2023/12/13 11:19:22;;;;;;;10.80;3.35;;;;;;;13.91;66.99;99657.66;4767782;29;114636;-71
2023/12/13 11:21:50;;;;;;;9.52;3.63;;;;;;;13.89;66.88;99659.59;4776893;29;114249;-70
2023/12/13 11:24:22;;;;;;;10.40;3.90;;;;;;;13.89;66.97;99664.91;4763178;29;122749;-71